sensor_id;sensor_type;location;lat;lon;timestamp;pressure;altitude;pressure_sealevel;temperature;humidity
46682;BME280;34101;53.430;-2.224;2022-11-14T00:00:43;155553.47;;;12.38;100.00
46682;BME280;34101;53.430;-2.224;2022-11-14T00:03:11;155555.09;;;12.38;100.00
46682;BME280;34101;53.430;-2.224;2022-11-14T00:05:40;155554.60;;;12.38;100.00
46682;BME280;34101;53.430;-2.224;2022-11-14T00:08:14;155556.14;;;12.39;100.00
46682;BME280;34101;53.430;-2.224;2022-11-14T00:10:41;155556.95;;;12.39;100.00
46682;BME280;34101;53.430;-2.224;2022-11-14T00:13:09;155561.24;;;12.41;100.00
46682;BME280;34101;53.430;-2.224;2022-11-14T00:15:36;155567.88;;;12.43;100.00
46682;BME280;34101;53.430;-2.224;2022-11-14T00:18:04;155573.62;;;12.46;100.00
46682;BME280;34101;53.430;-2.224;2022-11-14T00:20:31;155570.47;;;12.44;100.00
46682;BME280;34101;53.430;-2.224;2022-11-14T00:22:59;155572.81;;;12.45;100.00
46682;BME280;34101;53.430;-2.224;2022-11-14T00:25:26;155577.18;;;12.47;100.00
46682;BME280;34101;53.430;-2.224;2022-11-14T00:27:55;155574.92;;;12.46;100.00
46682;BME280;34101;53.430;-2.224;2022-11-14T00:30:25;155566.66;;;12.43;100.00
46682;BME280;34101;53.430;-2.224;2022-11-14T00:32:53;155562.53;;;12.41;100.00
46682;BME280;34101;53.430;-2.224;2022-11-14T00:35:21;155564.88;;;12.42;100.00
46682;BME280;34101;53.430;-2.224;2022-11-14T00:37:48;155563.02;;;12.41;100.00
46682;BME280;34101;53.430;-2.224;2022-11-14T00:40:16;155553.55;;;12.38;100.00
46682;BME280;34101;53.430;-2.224;2022-11-14T00:42:43;155556.46;;;12.39;100.00
46682;BME280;34101;53.430;-2.224;2022-11-14T00:45:10;155552.74;;;12.37;100.00
46682;BME280;34101;53.430;-2.224;2022-11-14T00:47:38;155559.30;;;12.40;100.00
46682;BME280;34101;53.430;-2.224;2022-11-14T00:50:06;155557.92;;;12.39;100.00
46682;BME280;34101;53.430;-2.224;2022-11-14T00:52:33;155566.82;;;12.43;100.00
46682;BME280;34101;53.430;-2.224;2022-11-14T00:55:00;155574.03;;;12.46;100.00
46682;BME280;34101;53.430;-2.224;2022-11-14T00:57:27;155577.27;;;12.47;100.00
46682;BME280;34101;53.430;-2.224;2022-11-14T00:59:55;155574.35;;;12.46;100.00
46682;BME280;34101;53.430;-2.224;2022-11-14T01:02:22;155586.57;;;12.51;100.00
46682;BME280;34101;53.430;-2.224;2022-11-14T01:04:50;155599.69;;;12.56;100.00
46682;BME280;34101;53.430;-2.224;2022-11-14T01:07:16;155602.68;;;12.57;100.00
46682;BME280;34101;53.430;-2.224;2022-11-14T01:09:44;155610.61;;;12.61;100.00
46682;BME280;34101;53.430;-2.224;2022-11-14T01:12:11;155619.60;;;12.64;100.00
46682;BME280;34101;53.430;-2.224;2022-11-14T01:14:39;155627.61;;;12.67;100.00
46682;BME280;34101;53.430;-2.224;2022-11-14T01:17:06;155627.69;;;12.67;100.00
46682;BME280;34101;53.430;-2.224;2022-11-14T01:19:34;155623.00;;;12.66;100.00
46682;BME280;34101;53.430;-2.224;2022-11-14T01:22:01;155612.39;;;12.61;100.00
46682;BME280;34101;53.430;-2.224;2022-11-14T01:24:31;155615.87;;;12.63;100.00
46682;BME280;34101;53.430;-2.224;2022-11-14T01:26:57;155612.07;;;12.61;100.00
46682;BME280;34101;53.430;-2.224;2022-11-14T01:29:25;155608.91;;;12.60;100.00
46682;BME280;34101;53.430;-2.224;2022-11-14T01:31:52;155606.65;;;12.59;100.00
46682;BME280;34101;53.430;-2.224;2022-11-14T01:34:19;155603.73;;;12.58;100.00
46682;BME280;34101;53.430;-2.224;2022-11-14T01:36:47;155591.92;;;12.53;100.00
46682;BME280;34101;53.430;-2.224;2022-11-14T01:39:14;155595.40;;;12.54;100.00
46682;BME280;34101;53.430;-2.224;2022-11-14T01:41:41;155598.47;;;12.56;100.00
46682;BME280;34101;53.430;-2.224;2022-11-14T01:44:12;155597.42;;;12.55;100.00
46682;BME280;34101;53.430;-2.224;2022-11-14T01:46:41;155594.42;;;12.54;100.00
46682;BME280;34101;53.430;-2.224;2022-11-14T01:49:16;155584.31;;;12.50;100.00
46682;BME280;34101;53.430;-2.224;2022-11-14T01:51:47;155571.36;;;12.45;100.00
46682;BME280;34101;53.430;-2.224;2022-11-14T01:54:19;155570.79;;;12.45;100.00
46682;BME280;34101;53.430;-2.224;2022-11-14T01:56:52;155566.82;;;12.43;100.00
46682;BME280;34101;53.430;-2.224;2022-11-14T01:59:23;155558.57;;;12.40;100.00
46682;BME280;34101;53.430;-2.224;2022-11-14T02:01:54;155565.69;;;12.43;100.00
46682;BME280;34101;53.430;-2.224;2022-11-14T02:04:26;155568.12;;;12.44;100.00
46682;BME280;34101;53.430;-2.224;2022-11-14T02:06:56;155566.99;;;12.43;100.00
46682;BME280;34101;53.430;-2.224;2022-11-14T02:09:24;155573.30;;;12.46;100.00
46682;BME280;34101;53.430;-2.224;2022-11-14T02:11:53;155584.63;;;12.50;100.00
46682;BME280;34101;53.430;-2.224;2022-11-14T02:14:21;155577.91;;;12.47;100.00
46682;BME280;34101;53.430;-2.224;2022-11-14T02:16:48;155582.36;;;12.49;100.00
46682;BME280;34101;53.430;-2.224;2022-11-14T02:19:16;155589.24;;;12.52;100.00
46682;BME280;34101;53.430;-2.224;2022-11-14T02:21:44;155591.11;;;12.53;100.00
46682;BME280;34101;53.430;-2.224;2022-11-14T02:24:12;155593.86;;;12.54;100.00
46682;BME280;34101;53.430;-2.224;2022-11-14T02:26:41;155590.78;;;12.53;100.00
46682;BME280;34101;53.430;-2.224;2022-11-14T02:29:10;155591.75;;;12.53;100.00
46682;BME280;34101;53.430;-2.224;2022-11-14T02:31:38;155590.05;;;12.52;100.00
46682;BME280;34101;53.430;-2.224;2022-11-14T02:34:05;155588.35;;;12.52;100.00
46682;BME280;34101;53.430;-2.224;2022-11-14T02:36:31;155588.68;;;12.52;100.00
46682;BME280;34101;53.430;-2.224;2022-11-14T02:38:59;155584.47;;;12.50;100.00
46682;BME280;34101;53.430;-2.224;2022-11-14T02:41:26;155583.66;;;12.50;100.00
46682;BME280;34101;53.430;-2.224;2022-11-14T02:43:54;155584.55;;;12.50;100.00
46682;BME280;34101;53.430;-2.224;2022-11-14T02:46:21;155591.27;;;12.53;100.00
46682;BME280;34101;53.430;-2.224;2022-11-14T02:48:48;155592.40;;;12.53;100.00
46682;BME280;34101;53.430;-2.224;2022-11-14T02:51:15;155597.58;;;12.55;100.00
46682;BME280;34101;53.430;-2.224;2022-11-14T02:53:43;155602.44;;;12.57;100.00
46682;BME280;34101;53.430;-2.224;2022-11-14T02:56:09;155600.25;;;12.56;100.00
46682;BME280;34101;53.430;-2.224;2022-11-14T02:58:37;155603.98;;;12.58;100.00
46682;BME280;34101;53.430;-2.224;2022-11-14T03:01:04;155608.67;;;12.60;100.00
46682;BME280;34101;53.430;-2.224;2022-11-14T03:03:32;155613.45;;;12.62;100.00
46682;BME280;34101;53.430;-2.224;2022-11-14T03:05:59;155616.85;;;12.63;100.00
46682;BME280;34101;53.430;-2.224;2022-11-14T03:08:27;155623.16;;;12.66;100.00
46682;BME280;34101;53.430;-2.224;2022-11-14T03:10:55;155613.37;;;12.62;100.00
46682;BME280;34101;53.430;-2.224;2022-11-14T03:13:22;155609.16;;;12.60;100.00
46682;BME280;34101;53.430;-2.224;2022-11-14T03:15:54;155603.17;;;12.58;100.00
46682;BME280;34101;53.430;-2.224;2022-11-14T03:18:22;155606.16;;;12.59;100.00
46682;BME280;34101;53.430;-2.224;2022-11-14T03:20:49;155611.50;;;12.61;100.00
46682;BME280;34101;53.430;-2.224;2022-11-14T03:23:16;155621.70;;;12.65;100.00
46682;BME280;34101;53.430;-2.224;2022-11-14T03:25:43;155617.98;;;12.64;100.00
46682;BME280;34101;53.430;-2.224;2022-11-14T03:28:11;155620.41;;;12.65;100.00
46682;BME280;34101;53.430;-2.224;2022-11-14T03:30:39;155617.49;;;12.63;100.00
46682;BME280;34101;53.430;-2.224;2022-11-14T03:33:05;155613.53;;;12.62;100.00
46682;BME280;34101;53.430;-2.224;2022-11-14T03:35:32;155588.76;;;12.52;100.00
46682;BME280;34101;53.430;-2.224;2022-11-14T03:37:59;155592.24;;;12.53;100.00
46682;BME280;34101;53.430;-2.224;2022-11-14T03:40:27;155565.37;;;12.42;100.00
46682;BME280;34101;53.430;-2.224;2022-11-14T03:42:56;155567.88;;;12.43;100.00
46682;BME280;34101;53.430;-2.224;2022-11-14T03:45:23;155577.83;;;12.47;100.00
46682;BME280;34101;53.430;-2.224;2022-11-14T03:47:53;155577.27;;;12.47;100.00
46682;BME280;34101;53.430;-2.224;2022-11-14T03:50:21;155566.58;;;12.43;100.00
46682;BME280;34101;53.430;-2.224;2022-11-14T03:52:49;155558.33;;;12.40;100.00
46682;BME280;34101;53.430;-2.224;2022-11-14T03:55:16;155558.41;;;12.40;100.00
46682;BME280;34101;53.430;-2.224;2022-11-14T03:57:43;155552.18;;;12.37;100.00
46682;BME280;34101;53.430;-2.224;2022-11-14T04:00:11;155553.63;;;12.38;100.00
46682;BME280;34101;53.430;-2.224;2022-11-14T04:02:38;155547.16;;;12.35;100.00
46682;BME280;34101;53.430;-2.224;2022-11-14T04:05:06;155546.67;;;12.35;100.00
46682;BME280;34101;53.430;-2.224;2022-11-14T04:07:34;155554.04;;;12.38;100.00
46682;BME280;34101;53.430;-2.224;2022-11-14T04:10:01;155562.05;;;12.41;100.00
46682;BME280;34101;53.430;-2.224;2022-11-14T04:12:29;155564.07;;;12.42;100.00
46682;BME280;34101;53.430;-2.224;2022-11-14T04:14:56;155549.50;;;12.36;100.00
46682;BME280;34101;53.430;-2.224;2022-11-14T04:17:24;155550.39;;;12.36;100.00
46682;BME280;34101;53.430;-2.224;2022-11-14T04:19:51;155546.75;;;12.35;100.00
46682;BME280;34101;53.430;-2.224;2022-11-14T04:22:18;155539.87;;;12.32;100.00
46682;BME280;34101;53.430;-2.224;2022-11-14T04:24:45;155541.49;;;12.33;100.00
46682;BME280;34101;53.430;-2.224;2022-11-14T04:27:13;155526.12;;;12.27;100.00
46682;BME280;34101;53.430;-2.224;2022-11-14T04:29:40;155522.88;;;12.25;100.00
46682;BME280;34101;53.430;-2.224;2022-11-14T04:32:07;155512.60;;;12.21;100.00
46682;BME280;34101;53.430;-2.224;2022-11-14T04:34:35;155504.83;;;12.18;100.00
46682;BME280;34101;53.430;-2.224;2022-11-14T04:37:02;155503.13;;;12.17;100.00
46682;BME280;34101;53.430;-2.224;2022-11-14T04:39:29;155502.00;;;12.17;100.00
46682;BME280;34101;53.430;-2.224;2022-11-14T04:41:56;155502.16;;;12.17;100.00
46682;BME280;34101;53.430;-2.224;2022-11-14T04:44:23;155498.44;;;12.15;100.00
46682;BME280;34101;53.430;-2.224;2022-11-14T04:46:50;155494.07;;;12.14;100.00
46682;BME280;34101;53.430;-2.224;2022-11-14T04:49:18;155481.20;;;12.09;100.00
46682;BME280;34101;53.430;-2.224;2022-11-14T04:51:45;155476.91;;;12.07;100.00
46682;BME280;34101;53.430;-2.224;2022-11-14T04:54:13;155472.06;;;12.05;100.00
46682;BME280;34101;53.430;-2.224;2022-11-14T04:56:40;155467.93;;;12.03;100.00
46682;BME280;34101;53.430;-2.224;2022-11-14T04:59:07;155457.58;;;11.99;100.00
46682;BME280;34101;53.430;-2.224;2022-11-14T05:01:34;155439.77;;;11.92;100.00
46682;BME280;34101;53.430;-2.224;2022-11-14T05:04:02;155433.87;;;11.89;100.00
46682;BME280;34101;53.430;-2.224;2022-11-14T05:06:29;155432.33;;;11.89;100.00
46682;BME280;34101;53.430;-2.224;2022-11-14T05:08:56;155426.34;;;11.86;100.00
46682;BME280;34101;53.430;-2.224;2022-11-14T05:11:23;155413.80;;;11.81;100.00
46682;BME280;34101;53.430;-2.224;2022-11-14T05:13:50;155413.80;;;11.81;100.00
46682;BME280;34101;53.430;-2.224;2022-11-14T05:16:17;155414.53;;;11.82;100.00
46682;BME280;34101;53.430;-2.224;2022-11-14T05:18:44;155409.35;;;11.80;100.00
46682;BME280;34101;53.430;-2.224;2022-11-14T05:21:12;155404.82;;;11.78;100.00
46682;BME280;34101;53.430;-2.224;2022-11-14T05:23:40;155401.99;;;11.77;100.00
46682;BME280;34101;53.430;-2.224;2022-11-14T05:26:10;155398.59;;;11.75;100.00
46682;BME280;34101;53.430;-2.224;2022-11-14T05:28:37;155388.16;;;11.71;100.00
46682;BME280;34101;53.430;-2.224;2022-11-14T05:31:07;155362.51;;;11.61;100.00
46682;BME280;34101;53.430;-2.224;2022-11-14T05:33:35;155343.26;;;11.53;100.00
46682;BME280;34101;53.430;-2.224;2022-11-14T05:36:02;155344.15;;;11.53;100.00
46682;BME280;34101;53.430;-2.224;2022-11-14T05:38:30;155353.45;;;11.57;100.00
46682;BME280;34101;53.430;-2.224;2022-11-14T05:40:57;155352.08;;;11.57;100.00
46682;BME280;34101;53.430;-2.224;2022-11-14T05:43:24;155347.71;;;11.55;100.00
46682;BME280;34101;53.430;-2.224;2022-11-14T05:45:52;155336.38;;;11.50;100.00
46682;BME280;34101;53.430;-2.224;2022-11-14T05:48:19;155340.43;;;11.52;100.00
46682;BME280;34101;53.430;-2.224;2022-11-14T05:50:46;155346.17;;;11.54;100.00
46682;BME280;34101;53.430;-2.224;2022-11-14T05:53:13;155359.52;;;11.60;100.00
46682;BME280;34101;53.430;-2.224;2022-11-14T05:55:41;155365.91;;;11.62;100.00
46682;BME280;34101;53.430;-2.224;2022-11-14T05:58:08;155368.09;;;11.63;100.00
46682;BME280;34101;53.430;-2.224;2022-11-14T06:00:36;155365.91;;;11.62;100.00
46682;BME280;34101;53.430;-2.224;2022-11-14T06:03:03;155351.27;;;11.56;100.00
46682;BME280;34101;53.430;-2.224;2022-11-14T06:05:30;155350.62;;;11.56;100.00
46682;BME280;34101;53.430;-2.224;2022-11-14T06:07:58;155349.41;;;11.55;100.00
46682;BME280;34101;53.430;-2.224;2022-11-14T06:10:26;155348.76;;;11.55;100.00
46682;BME280;34101;53.430;-2.224;2022-11-14T06:12:54;155340.35;;;11.52;100.00
46682;BME280;34101;53.430;-2.224;2022-11-14T06:15:21;155342.45;;;11.53;100.00
46682;BME280;34101;53.430;-2.224;2022-11-14T06:17:51;155351.19;;;11.56;100.00
46682;BME280;34101;53.430;-2.224;2022-11-14T06:20:19;155354.75;;;11.58;100.00
46682;BME280;34101;53.430;-2.224;2022-11-14T06:22:46;155361.46;;;11.60;100.00
46682;BME280;34101;53.430;-2.224;2022-11-14T06:25:13;155369.95;;;11.64;100.00
46682;BME280;34101;53.430;-2.224;2022-11-14T06:27:40;155376.59;;;11.66;100.00
46682;BME280;34101;53.430;-2.224;2022-11-14T06:30:08;155373.92;;;11.65;100.00
46682;BME280;34101;53.430;-2.224;2022-11-14T06:32:36;155374.81;;;11.66;100.00
46682;BME280;34101;53.430;-2.224;2022-11-14T06:35:04;155356.28;;;11.58;100.00
46682;BME280;34101;53.430;-2.224;2022-11-14T06:37:31;155361.14;;;11.60;100.00
46682;BME280;34101;53.430;-2.224;2022-11-14T06:40:01;155362.03;;;11.61;100.00
46682;BME280;34101;53.430;-2.224;2022-11-14T06:42:28;155361.54;;;11.60;100.00
46682;BME280;34101;53.430;-2.224;2022-11-14T06:44:55;155366.31;;;11.62;100.00
46682;BME280;34101;53.430;-2.224;2022-11-14T06:47:22;155363.89;;;11.61;100.00
46682;BME280;34101;53.430;-2.224;2022-11-14T06:49:49;155350.86;;;11.56;100.00
46682;BME280;34101;53.430;-2.224;2022-11-14T06:52:16;155356.12;;;11.58;100.00
46682;BME280;34101;53.430;-2.224;2022-11-14T06:54:44;155360.41;;;11.60;100.00
46682;BME280;34101;53.430;-2.224;2022-11-14T06:57:11;155366.88;;;11.63;100.00
46682;BME280;34101;53.430;-2.224;2022-11-14T06:59:38;155368.58;;;11.63;100.00
46682;BME280;34101;53.430;-2.224;2022-11-14T07:02:05;155366.48;;;11.62;100.00
46682;BME280;34101;53.430;-2.224;2022-11-14T07:04:32;155348.84;;;11.55;100.00
46682;BME280;34101;53.430;-2.224;2022-11-14T07:06:59;155324.74;;;11.46;100.00
46682;BME280;34101;53.430;-2.224;2022-11-14T07:09:27;155338.97;;;11.51;100.00
46682;BME280;34101;53.430;-2.224;2022-11-14T07:11:55;155351.19;;;11.56;100.00
46682;BME280;34101;53.430;-2.224;2022-11-14T07:14:22;155340.10;;;11.52;100.00
46682;BME280;34101;53.430;-2.224;2022-11-14T07:16:49;155346.90;;;11.54;100.00
46682;BME280;34101;53.430;-2.224;2022-11-14T07:19:17;155356.61;;;11.58;100.00
46682;BME280;34101;53.430;-2.224;2022-11-14T07:21:44;155362.59;;;11.61;100.00
46682;BME280;34101;53.430;-2.224;2022-11-14T07:24:11;155366.64;;;11.62;100.00
46682;BME280;34101;53.430;-2.224;2022-11-14T07:26:38;155361.22;;;11.60;100.00
46682;BME280;34101;53.430;-2.224;2022-11-14T07:29:05;155360.73;;;11.60;100.00
46682;BME280;34101;53.430;-2.224;2022-11-14T07:31:32;155369.87;;;11.64;100.00
46682;BME280;34101;53.430;-2.224;2022-11-14T07:34:00;155363.00;;;11.61;100.00
46682;BME280;34101;53.430;-2.224;2022-11-14T07:36:28;155357.90;;;11.59;100.00
46682;BME280;34101;53.430;-2.224;2022-11-14T07:38:55;155353.86;;;11.57;100.00
46682;BME280;34101;53.430;-2.224;2022-11-14T07:41:23;155349.57;;;11.56;100.00
46682;BME280;34101;53.430;-2.224;2022-11-14T07:43:50;155340.91;;;11.52;100.00
46682;BME280;34101;53.430;-2.224;2022-11-14T07:46:18;155333.15;;;11.49;100.00
46682;BME280;34101;53.430;-2.224;2022-11-14T07:48:45;155323.93;;;11.45;100.00
46682;BME280;34101;53.430;-2.224;2022-11-14T07:51:14;155316.16;;;11.42;100.00
46682;BME280;34101;53.430;-2.224;2022-11-14T07:53:41;155311.31;;;11.40;100.00
46682;BME280;34101;53.430;-2.224;2022-11-14T07:56:10;155303.54;;;11.37;100.00
46682;BME280;34101;53.430;-2.224;2022-11-14T07:58:40;155294.65;;;11.33;100.00
46682;BME280;34101;53.430;-2.224;2022-11-14T08:01:10;155295.45;;;11.34;100.00
46682;BME280;34101;53.430;-2.224;2022-11-14T08:03:38;155292.62;;;11.33;100.00
46682;BME280;34101;53.430;-2.224;2022-11-14T08:06:07;155304.19;;;11.37;100.00
46682;BME280;34101;53.430;-2.224;2022-11-14T08:08:35;155320.93;;;11.44;100.00
46682;BME280;34101;53.430;-2.224;2022-11-14T08:11:03;155327.24;;;11.47;100.00
46682;BME280;34101;53.430;-2.224;2022-11-14T08:13:30;155334.20;;;11.49;100.00
46682;BME280;34101;53.430;-2.224;2022-11-14T08:15:58;155306.78;;;11.38;100.00
46682;BME280;34101;53.430;-2.224;2022-11-14T08:18:29;155318.51;;;11.43;100.00
46682;BME280;34101;53.430;-2.224;2022-11-14T08:20:56;155325.63;;;11.46;100.00
46682;BME280;34101;53.430;-2.224;2022-11-14T08:23:24;155336.79;;;11.50;100.00
46682;BME280;34101;53.430;-2.224;2022-11-14T08:25:51;155353.37;;;11.57;100.00
46682;BME280;34101;53.430;-2.224;2022-11-14T08:28:18;155353.21;;;11.57;100.00
46682;BME280;34101;53.430;-2.224;2022-11-14T08:30:46;155362.84;;;11.61;100.00
46682;BME280;34101;53.430;-2.224;2022-11-14T08:33:13;155376.83;;;11.67;100.00
46682;BME280;34101;53.430;-2.224;2022-11-14T08:35:41;155399.97;;;11.76;100.00
46682;BME280;34101;53.430;-2.224;2022-11-14T08:38:08;155422.70;;;11.85;100.00
46682;BME280;34101;53.430;-2.224;2022-11-14T08:40:35;155437.91;;;11.91;100.00
46682;BME280;34101;53.430;-2.224;2022-11-14T08:43:02;155448.11;;;11.95;100.00
46682;BME280;34101;53.430;-2.224;2022-11-14T08:45:29;155452.48;;;11.97;100.00
46682;BME280;34101;53.430;-2.224;2022-11-14T08:47:56;155436.62;;;11.91;100.00
46682;BME280;34101;53.430;-2.224;2022-11-14T08:50:24;155443.66;;;11.93;100.00
46682;BME280;34101;53.430;-2.224;2022-11-14T08:52:51;155465.59;;;12.02;100.00
46682;BME280;34101;53.430;-2.224;2022-11-14T08:55:19;155488.73;;;12.12;100.00
46682;BME280;34101;53.430;-2.224;2022-11-14T08:57:46;155507.66;;;12.19;100.00
46682;BME280;34101;53.430;-2.224;2022-11-14T09:00:14;155523.69;;;12.26;100.00
46682;BME280;34101;53.430;-2.224;2022-11-14T09:02:42;155542.38;;;12.33;100.00
46682;BME280;34101;53.430;-2.224;2022-11-14T09:05:10;155557.60;;;12.39;100.00
46682;BME280;34101;53.430;-2.224;2022-11-14T09:07:37;155565.12;;;12.42;100.00
46682;BME280;34101;53.430;-2.224;2022-11-14T09:10:06;155580.02;;;12.48;100.00
46682;BME280;34101;53.430;-2.224;2022-11-14T09:12:34;155600.01;;;12.56;100.00
46682;BME280;34101;53.430;-2.224;2022-11-14T09:15:01;155623.89;;;12.66;100.00
46682;BME280;34101;53.430;-2.224;2022-11-14T09:17:28;155647.36;;;12.75;100.00
46682;BME280;34101;53.430;-2.224;2022-11-14T09:19:55;155683.15;;;12.90;100.00
46682;BME280;34101;53.430;-2.224;2022-11-14T09:22:22;155850.68;;;13.57;100.00
46682;BME280;34101;53.430;-2.224;2022-11-14T09:24:49;155938.97;;;13.93;100.00
46682;BME280;34101;53.430;-2.224;2022-11-14T09:27:17;155943.75;;;13.95;100.00
46682;BME280;34101;53.430;-2.224;2022-11-14T09:29:44;155941.73;;;13.94;100.00
46682;BME280;34101;53.430;-2.224;2022-11-14T09:32:12;155943.92;;;13.95;100.00
46682;BME280;34101;53.430;-2.224;2022-11-14T09:34:39;155945.54;;;13.95;100.00
46682;BME280;34101;53.430;-2.224;2022-11-14T09:37:06;155946.35;;;13.96;100.00
46682;BME280;34101;53.430;-2.224;2022-11-14T09:39:34;156003.62;;;14.19;100.00
46682;BME280;34101;53.430;-2.224;2022-11-14T09:42:14;156209.47;;;15.01;100.00
46682;BME280;34101;53.430;-2.224;2022-11-14T09:44:52;156371.21;;;15.66;100.00
46682;BME280;34101;53.430;-2.224;2022-11-14T09:47:23;156537.88;;;16.33;100.00
46682;BME280;34101;53.430;-2.224;2022-11-14T09:49:55;156529.77;;;16.30;100.00
46682;BME280;34101;53.430;-2.224;2022-11-14T09:52:29;156575.28;;;16.48;100.00
46682;BME280;34101;53.430;-2.224;2022-11-14T09:55:03;156690.50;;;16.95;100.00
46682;BME280;34101;53.430;-2.224;2022-11-14T09:57:35;156820.27;;;17.47;100.00
46682;BME280;34101;53.430;-2.224;2022-11-14T10:00:10;156878.56;;;17.70;100.00
46682;BME280;34101;53.430;-2.224;2022-11-14T10:02:44;156833.18;;;17.52;100.00
46682;BME280;34101;53.430;-2.224;2022-11-14T10:05:24;156615.36;;;16.64;100.00
46682;BME280;34101;53.430;-2.224;2022-11-14T10:08:05;156455.88;;;16.00;100.00
46682;BME280;34101;53.430;-2.224;2022-11-14T10:10:45;156348.67;;;15.57;100.00
46682;BME280;34101;53.430;-2.224;2022-11-14T10:13:28;156290.21;;;15.34;100.00
46682;BME280;34101;53.430;-2.224;2022-11-14T10:16:02;156255.59;;;15.20;100.00
46682;BME280;34101;53.430;-2.224;2022-11-14T10:18:41;156203.14;;;14.99;100.00
46682;BME280;34101;53.430;-2.224;2022-11-14T10:21:25;156196.50;;;14.96;100.00
46682;BME280;34101;53.430;-2.224;2022-11-14T10:24:01;156211.74;;;15.02;100.00
46682;BME280;34101;53.430;-2.224;2022-11-14T10:26:36;156232.65;;;15.11;100.00
46682;BME280;34101;53.430;-2.224;2022-11-14T10:29:28;156223.25;;;15.07;100.00
46682;BME280;34101;53.430;-2.224;2022-11-14T10:32:07;156404.95;;;15.80;100.00
46682;BME280;34101;53.430;-2.224;2022-11-14T10:34:45;156644.65;;;16.76;100.00
46682;BME280;34101;53.430;-2.224;2022-11-14T10:37:19;156686.11;;;16.93;100.00
46682;BME280;34101;53.430;-2.224;2022-11-14T10:39:51;156618.04;;;16.65;100.00
46682;BME280;34101;53.430;-2.224;2022-11-14T10:42:24;156760.94;;;17.23;100.00
46682;BME280;34101;53.430;-2.224;2022-11-14T10:44:59;156824.90;;;17.48;100.00
46682;BME280;34101;53.430;-2.224;2022-11-14T10:47:34;156788.62;;;17.34;100.00
46682;BME280;34101;53.430;-2.224;2022-11-14T10:50:13;156625.50;;;16.68;100.00
46682;BME280;34101;53.430;-2.224;2022-11-14T10:52:44;156492.21;;;16.15;100.00
46682;BME280;34101;53.430;-2.224;2022-11-14T10:55:14;156455.07;;;16.00;100.00
46682;BME280;34101;53.430;-2.224;2022-11-14T10:57:42;156456.53;;;16.01;100.00
46682;BME280;34101;53.430;-2.224;2022-11-14T11:00:12;156380.05;;;15.70;100.00
46682;BME280;34101;53.430;-2.224;2022-11-14T11:02:50;156327.34;;;15.49;100.00
46682;BME280;34101;53.430;-2.224;2022-11-14T11:05:19;156226.81;;;15.08;100.00
46682;BME280;34101;53.430;-2.224;2022-11-14T11:07:47;156137.00;;;14.72;100.00
46682;BME280;34101;53.430;-2.224;2022-11-14T11:10:23;156159.78;;;14.81;100.00
46682;BME280;34101;53.430;-2.224;2022-11-14T11:12:51;156075.01;;;14.47;100.00
46682;BME280;34101;53.430;-2.224;2022-11-14T11:15:21;155989.12;;;14.13;100.00
46682;BME280;34101;53.430;-2.224;2022-11-14T11:17:54;156054.59;;;14.39;100.00
46682;BME280;34101;53.430;-2.224;2022-11-14T11:20:28;156006.86;;;14.20;100.00
46682;BME280;34101;53.430;-2.224;2022-11-14T11:23:03;155930.06;;;13.89;100.00
46682;BME280;34101;53.430;-2.224;2022-11-14T11:25:32;155954.37;;;13.99;100.00
46682;BME280;34101;53.430;-2.224;2022-11-14T11:28:05;155944.32;;;13.95;100.00
46682;BME280;34101;53.430;-2.224;2022-11-14T11:30:33;155926.42;;;13.88;100.00
46682;BME280;34101;53.430;-2.224;2022-11-14T11:33:22;155958.25;;;14.00;100.00
46682;BME280;34101;53.430;-2.224;2022-11-14T11:35:55;155997.14;;;14.16;100.00
46682;BME280;34101;53.430;-2.224;2022-11-14T11:38:26;155987.34;;;14.12;100.00
46682;BME280;34101;53.430;-2.224;2022-11-14T11:41:00;155989.12;;;14.13;100.00
46682;BME280;34101;53.430;-2.224;2022-11-14T11:43:36;155982.56;;;14.10;100.00
46682;BME280;34101;53.430;-2.224;2022-11-14T11:46:13;155976.08;;;14.08;100.00
46682;BME280;34101;53.430;-2.224;2022-11-14T11:48:41;155961.25;;;14.02;100.00
46682;BME280;34101;53.430;-2.224;2022-11-14T11:51:16;155916.78;;;13.84;100.00
46682;BME280;34101;53.430;-2.224;2022-11-14T11:53:49;155941.08;;;13.94;100.00
46682;BME280;34101;53.430;-2.224;2022-11-14T11:56:25;155960.44;;;14.01;100.00
46682;BME280;34101;53.430;-2.224;2022-11-14T11:59:02;155917.75;;;13.84;100.00
46682;BME280;34101;53.430;-2.224;2022-11-14T12:01:31;155925.04;;;13.87;100.00
46682;BME280;34101;53.430;-2.224;2022-11-14T12:03:59;155878.87;;;13.69;100.00
46682;BME280;34101;53.430;-2.224;2022-11-14T12:06:28;155894.58;;;13.75;100.00
46682;BME280;34101;53.430;-2.224;2022-11-14T12:09:09;155847.36;;;13.56;100.00
46682;BME280;34101;53.430;-2.224;2022-11-14T12:11:45;155839.59;;;13.53;100.00
46682;BME280;34101;53.430;-2.224;2022-11-14T12:14:31;155855.14;;;13.59;100.00
46682;BME280;34101;53.430;-2.224;2022-11-14T12:17:21;155875.71;;;13.67;100.00
46682;BME280;34101;53.430;-2.224;2022-11-14T12:20:12;155854.65;;;13.59;100.00
46682;BME280;34101;53.430;-2.224;2022-11-14T12:23:01;155851.17;;;13.57;100.00
46682;BME280;34101;53.430;-2.224;2022-11-14T12:26:01;155835.21;;;13.51;100.00
46682;BME280;34101;53.430;-2.224;2022-11-14T12:28:50;155851.57;;;13.58;100.00
46682;BME280;34101;53.430;-2.224;2022-11-14T12:31:21;155872.31;;;13.66;100.00
46682;BME280;34101;53.430;-2.224;2022-11-14T12:33:52;155885.11;;;13.71;100.00
46682;BME280;34101;53.430;-2.224;2022-11-14T12:36:26;155888.83;;;13.73;100.00
46682;BME280;34101;53.430;-2.224;2022-11-14T12:38:56;155890.70;;;13.73;100.00
46682;BME280;34101;53.430;-2.224;2022-11-14T12:41:26;155888.59;;;13.72;100.00